Air Navigation Services of Czech Republic
Airport: LKKB Updated:  03.12.2021 17:59:28  UTC
 METAR LKKB 03.12. 18:00 ...
METAR LKKB 031800Z 18009KT CAVOK M01/M05 Q1012 NOSIG RMK BLU BLU=
 TAF LKKB 03.12. 17:00 ...
TAF LKKB 031700Z 0318/0418 22010KT CAVOK      TEMPO 0318/0400 25015G25KT      BECMG 0400/0402 16008KT      BECMG 0405/0407 BKN035      TEMPO 0406/0412 5000 SN BKN014 OVC024      PROB30 TEMPO 0406/0412 2000 SN BKN007 OVC012      BECMG 0410/0412 21006KT      TEMPO 0412/0418 5000 RASN BKN007 OVC017=